Time;durP1;ratioP1;P1;durP2;ratioP2;P2;SDS_P1;SDS_P2;PMS_P1;PMS_P2;Temp;Humidity;BMP_temperature;BMP_pressure;BME280_temperature;BME280_humidity;BME280_pressure;Samples;Min_cycle;Max_cycle;Signal;HPM_P1;HPM_P2
2022/06/06 00:01:57;;;;;;;31.77;24.88;;;17.90;99.90;;;;;;5031366;28;20057;-48
2022/06/06 00:04:26;;;;;;;33.58;26.73;;;17.90;99.90;;;;;;5031301;28;20079;-49
2022/06/06 00:06:53;;;;;;;31.42;26.20;;;17.80;99.90;;;;;;5031783;28;20487;-51
2022/06/06 00:09:19;;;;;;;34.63;26.58;;;17.80;99.90;;;;;;5031486;28;20017;-50
2022/06/06 00:11:45;;;;;;;37.47;29.10;;;17.70;99.90;;;;;;5030728;28;20017;-50
2022/06/06 00:14:12;;;;;;;40.75;31.45;;;17.70;99.90;;;;;;5028395;28;20032;-48
2022/06/06 00:16:38;;;;;;;51.60;34.53;;;17.70;99.90;;;;;;5026793;28;20032;-51
2022/06/06 00:19:04;;;;;;;56.80;36.15;;;17.60;99.90;;;;;;5011369;28;20398;-51
2022/06/06 00:21:30;;;;;;;53.13;36.63;;;17.60;99.90;;;;;;5010992;28;20036;-50
2022/06/06 00:23:59;;;;;;;49.47;36.53;;;17.60;99.90;;;;;;5011042;28;20026;-50
2022/06/06 00:26:29;;;;;;;46.80;34.75;;;17.60;99.90;;;;;;5011335;28;20018;-48
2022/06/06 00:28:55;;;;;;;44.58;32.78;;;17.60;99.90;;;;;;5012194;28;20033;-49
2022/06/06 00:36:50;;;;;;;43.25;31.55;;;17.60;99.90;;;;;;5022701;28;20064;-49
2022/06/06 00:39:17;;;;;;;45.28;33.60;;;17.60;99.90;;;;;;5021701;28;20037;-50
2022/06/06 00:41:49;;;;;;;48.20;33.75;;;17.60;99.90;;;;;;5010372;28;20026;-50
2022/06/06 00:44:17;;;;;;;41.75;30.85;;;17.50;99.90;;;;;;5010959;28;20029;-50
2022/06/06 00:46:55;;;;;;;48.38;33.45;;;17.50;99.90;;;;;;5010691;28;20026;-49
2022/06/06 00:49:48;;;;;;;39.08;31.00;;;17.50;99.90;;;;;;5011050;28;20104;-50
2022/06/06 00:52:23;;;;;;;40.75;29.25;;;17.50;99.90;;;;;;5009607;28;20407;-49
2022/06/06 00:54:52;;;;;;;36.97;26.90;;;17.50;99.90;;;;;;5010910;28;20033;-49
2022/06/06 00:57:22;;;;;;;35.15;26.50;;;17.40;99.90;;;;;;5010770;28;20026;-49
2022/06/06 00:59:49;;;;;;;29.97;24.83;;;17.40;99.90;;;;;;5009943;28;20545;-49
2022/06/06 01:02:16;;;;;;;28.77;22.95;;;17.30;99.90;;;;;;5010137;28;20495;-47
2022/06/06 01:04:42;;;;;;;25.33;21.38;;;17.20;99.90;;;;;;5010528;28;20179;-50
2022/06/06 01:07:10;;;;;;;24.90;20.92;;;17.20;99.90;;;;;;5024318;28;20030;-48
2022/06/06 01:09:39;;;;;;;25.20;20.60;;;17.20;99.90;;;;;;5017682;28;20423;-51
2022/06/06 01:12:09;;;;;;;24.60;20.35;;;17.10;99.90;;;;;;5026449;28;20076;-51
2022/06/06 01:14:39;;;;;;;23.27;19.50;;;17.10;99.90;;;;;;5010426;28;20041;-49
2022/06/06 01:17:31;;;;;;;25.10;19.23;;;17.00;99.90;;;;;;5010367;28;20049;-50
2022/06/06 01:20:16;;;;;;;22.02;16.75;;;17.00;99.90;;;;;;5002872;28;20126;-48
2022/06/06 01:23:02;;;;;;;20.63;17.27;;;16.90;99.90;;;;;;5010560;28;20041;-48
2022/06/06 01:25:40;;;;;;;16.90;15.05;;;16.80;99.90;;;;;;5009054;28;20072;-50
2022/06/06 01:28:34;;;;;;;18.83;15.68;;;16.70;99.90;;;;;;5010116;28;20448;-50
2022/06/06 01:31:03;;;;;;;18.38;15.43;;;16.70;99.90;;;;;;5014695;28;20513;-48
2022/06/06 01:33:28;;;;;;;15.88;14.27;;;16.80;99.90;;;;;;5026675;28;20518;-48
2022/06/06 01:36:00;;;;;;;18.67;14.13;;;16.70;99.90;;;;;;5013260;28;20017;-47
2022/06/06 01:38:26;;;;;;;17.35;13.10;;;16.50;99.90;;;;;;5027113;28;20081;-51
2022/06/06 01:41:08;;;;;;;17.33;13.40;;;16.50;99.90;;;;;;5009433;28;20034;-50
2022/06/06 01:43:41;;;;;;;15.60;13.85;;;16.50;99.90;;;;;;5010111;28;20277;-47
2022/06/06 01:46:15;;;;;;;17.23;13.55;;;16.40;99.90;;;;;;5010043;28;20025;-47
2022/06/06 01:48:42;;;;;;;14.95;13.27;;;16.40;99.90;;;;;;5009999;28;20506;-48
2022/06/06 01:51:14;;;;;;;14.80;13.20;;;16.50;99.90;;;;;;5009392;28;20187;-48
2022/06/06 01:53:40;;;;;;;12.48;11.10;;;16.40;99.90;;;;;;5010052;28;20030;-48
2022/06/06 01:56:09;;;;;;;15.13;12.10;;;16.30;99.90;;;;;;5009985;28;20026;-47
2022/06/06 01:58:35;;;;;;;16.77;11.75;;;16.30;99.90;;;;;;5009750;28;20491;-48
2022/06/06 02:01:02;;;;;;;13.32;11.20;;;16.20;99.90;;;;;;5010189;28;20455;-47
2022/06/06 02:03:29;;;;;;;13.55;11.90;;;16.00;99.90;;;;;;5026228;28;20033;-48
2022/06/06 02:05:54;;;;;;;13.43;12.00;;;16.00;99.90;;;;;;5009717;28;20560;-48
2022/06/06 02:08:20;;;;;;;13.52;12.13;;;16.00;99.90;;;;;;5026569;28;20104;-50
2022/06/06 02:10:46;;;;;;;14.48;12.07;;;16.00;99.90;;;;;;5009217;28;20028;-49
2022/06/06 02:13:12;;;;;;;14.80;13.18;;;16.00;99.90;;;;;;5010152;28;20034;-49
2022/06/06 02:15:39;;;;;;;14.98;11.77;;;15.90;99.90;;;;;;5008531;28;20546;-48
2022/06/06 02:18:05;;;;;;;18.60;12.13;;;15.90;99.90;;;;;;5012766;28;20032;-48
2022/06/06 02:20:33;;;;;;;13.45;11.98;;;16.00;99.90;;;;;;5025379;28;20026;-47
2022/06/06 02:22:59;;;;;;;14.25;11.82;;;16.00;99.90;;;;;;5009676;28;20057;-50
2022/06/06 02:25:25;;;;;;;13.75;11.13;;;16.00;99.90;;;;;;5009975;28;20029;-49
2022/06/06 02:27:51;;;;;;;13.13;10.88;;;15.90;99.90;;;;;;5009541;28;20028;-50
2022/06/06 02:30:24;;;;;;;12.40;10.88;;;15.80;99.90;;;;;;5008770;28;20108;-47
2022/06/06 02:32:50;;;;;;;11.55;10.35;;;15.80;99.90;;;;;;5009446;28;20137;-50
2022/06/06 02:35:24;;;;;;;15.40;11.85;;;15.90;99.90;;;;;;5009105;28;20112;-47
2022/06/06 02:37:51;;;;;;;11.65;10.20;;;15.90;99.90;;;;;;5007717;28;20486;-50
2022/06/06 02:40:18;;;;;;;13.27;10.77;;;15.70;99.90;;;;;;5008301;28;20022;-48
2022/06/06 02:42:44;;;;;;;13.07;11.68;;;15.70;99.90;;;;;;5008772;28;20038;-48
2022/06/06 02:45:12;;;;;;;13.43;11.57;;;15.60;99.90;;;;;;5008729;28;20036;-48
2022/06/06 02:47:38;;;;;;;16.67;11.75;;;15.60;99.90;;;;;;5009179;28;20021;-50
2022/06/06 02:50:06;;;;;;;13.65;11.93;;;15.60;99.90;;;;;;5027650;28;20450;-47
2022/06/06 02:52:34;;;;;;;14.35;11.70;;;15.60;99.90;;;;;;5009269;28;20475;-47
2022/06/06 02:55:01;;;;;;;15.15;11.65;;;15.50;99.90;;;;;;5016493;28;20051;-49
2022/06/06 02:57:27;;;;;;;12.90;11.25;;;15.50;99.90;;;;;;5027139;28;20057;-48
2022/06/06 02:59:54;;;;;;;11.63;10.38;;;15.50;99.90;;;;;;5028035;28;20525;-47
2022/06/06 03:02:19;;;;;;;12.95;11.13;;;15.60;99.90;;;;;;5028529;28;20034;-49
2022/06/06 03:04:45;;;;;;;12.68;11.38;;;15.60;99.90;;;;;;5028273;28;20030;-51
2022/06/06 03:07:31;;;;;;;14.10;11.18;;;15.60;99.90;;;;;;5028724;28;20562;-50
2022/06/06 03:10:03;;;;;;;14.27;11.85;;;15.60;99.90;;;;;;5027786;28;20033;-50
2022/06/06 03:12:51;;;;;;;12.65;11.35;;;15.60;99.90;;;;;;5028423;28;20108;-50
2022/06/06 03:22:19;;;;;;;12.75;10.90;;;15.60;99.90;;;;;;5028360;28;20064;-49
2022/06/06 03:25:05;;;;;;;12.05;10.75;;;15.60;99.90;;;;;;5027349;28;20021;-48
2022/06/06 03:27:42;;;;;;;11.75;10.55;;;15.70;99.90;;;;;;5025849;28;20029;-47
2022/06/06 03:30:22;;;;;;;12.40;11.07;;;15.70;99.90;;;;;;5024981;28;20077;-50
2022/06/06 03:33:02;;;;;;;12.60;10.37;;;15.60;99.90;;;;;;5025645;28;20022;-48
2022/06/06 03:35:40;;;;;;;12.88;9.93;;;15.70;99.90;;;;;;5024997;28;20574;-49
2022/06/06 03:38:21;;;;;;;12.40;11.10;;;15.70;99.90;;;;;;5026685;28;20033;-48
2022/06/06 03:41:09;;;;;;;11.55;10.35;;;15.70;99.90;;;;;;5027390;28;20032;-51
2022/06/06 03:43:45;;;;;;;12.50;10.32;;;15.70;99.90;;;;;;5027962;28;20031;-50
2022/06/06 03:46:44;;;;;;;11.93;10.43;;;15.70;99.90;;;;;;5028210;28;20032;-50
2022/06/06 03:49:38;;;;;;;11.30;9.85;;;15.70;99.90;;;;;;5026500;28;20112;-51
2022/06/06 03:52:15;;;;;;;11.13;9.75;;;15.80;99.90;;;;;;5011926;28;20022;-49
2022/06/06 03:55:17;;;;;;;13.30;9.60;;;15.80;99.90;;;;;;5007038;28;20471;-50
2022/06/06 03:57:46;;;;;;;11.40;9.10;;;15.90;99.90;;;;;;5007852;28;20057;-48
2022/06/06 04:00:14;;;;;;;15.13;9.65;;;16.00;99.90;;;;;;5011198;28;20117;-49
2022/06/06 04:02:42;;;;;;;15.32;9.25;;;16.00;99.90;;;;;;5011927;28;20033;-50
2022/06/06 04:05:14;;;;;;;12.77;9.63;;;16.00;99.90;;;;;;5023591;28;20321;-47
2022/06/06 04:07:39;;;;;;;12.40;10.02;;;16.10;99.90;;;;;;5030700;28;20033;-47
2022/06/06 04:10:06;;;;;;;12.43;9.68;;;16.10;99.90;;;;;;5028252;28;20574;-48
2022/06/06 04:13:04;;;;;;;12.93;9.80;;;16.10;99.90;;;;;;5028350;28;20010;-49
2022/06/06 04:16:00;;;;;;;10.90;9.80;;;16.10;99.90;;;;;;5025777;28;20056;-48
2022/06/06 04:18:45;;;;;;;15.68;9.75;;;16.10;99.90;;;;;;5028666;28;20075;-49
2022/06/06 04:21:32;;;;;;;10.73;9.43;;;16.10;99.90;;;;;;5028835;28;20033;-50
2022/06/06 04:24:34;;;;;;;13.43;10.15;;;16.10;99.90;;;;;;5028515;28;20022;-50
2022/06/06 04:27:14;;;;;;;13.05;9.40;;;16.20;99.90;;;;;;5028576;28;20033;-48
2022/06/06 04:29:42;;;;;;;12.15;10.27;;;16.20;99.90;;;;;;5026694;28;20390;-47
2022/06/06 04:32:46;;;;;;;10.88;9.55;;;16.30;99.90;;;;;;5029477;28;20480;-48
2022/06/06 04:35:44;;;;;;;11.30;9.38;;;16.30;99.90;;;;;;5030034;28;20041;-48
2022/06/06 04:38:50;;;;;;;13.98;9.48;;;16.40;99.90;;;;;;5029928;28;20554;-48
2022/06/06 04:41:19;;;;;;;13.15;9.27;;;16.50;99.90;;;;;;5027047;28;20128;-47
2022/06/06 04:44:22;;;;;;;13.10;9.27;;;16.50;99.90;;;;;;5030813;28;20034;-46
2022/06/06 04:47:01;;;;;;;12.70;8.57;;;16.60;99.90;;;;;;5024132;28;20029;-47
2022/06/06 04:49:31;;;;;;;12.77;8.95;;;16.60;99.90;;;;;;5030217;28;20071;-48
2022/06/06 04:51:58;;;;;;;12.80;8.57;;;16.60;99.90;;;;;;5016284;28;20083;-47
2022/06/06 04:54:24;;;;;;;14.25;9.63;;;16.70;99.90;;;;;;5011322;28;20407;-49
2022/06/06 04:56:52;;;;;;;10.73;8.82;;;16.70;99.90;;;;;;5011077;28;20069;-48
2022/06/06 04:59:19;;;;;;;10.70;8.65;;;16.80;99.90;;;;;;5009702;28;20026;-47
2022/06/06 05:01:45;;;;;;;10.13;8.00;;;16.90;99.90;;;;;;5010339;28;20123;-47
2022/06/06 05:04:11;;;;;;;8.75;7.85;;;17.00;99.90;;;;;;5010430;28;20026;-48
2022/06/06 05:07:08;;;;;;;9.95;8.88;;;17.00;99.90;;;;;;5011112;28;20018;-48
2022/06/06 05:09:54;;;;;;;10.32;8.60;;;17.00;99.90;;;;;;5009083;28;20058;-47
2022/06/06 05:12:58;;;;;;;9.63;8.15;;;17.10;99.90;;;;;;5010926;28;20022;-47
2022/06/06 05:15:54;;;;;;;9.07;8.00;;;17.20;99.90;;;;;;4994032;28;20037;-49
2022/06/06 05:18:26;;;;;;;9.57;7.40;;;17.30;99.90;;;;;;5029953;28;20018;-47
2022/06/06 05:21:09;;;;;;;12.13;7.90;;;17.40;99.90;;;;;;5029803;28;20054;-49
2022/06/06 05:24:17;;;;;;;11.52;8.13;;;17.40;99.90;;;;;;5030254;28;20103;-49
2022/06/06 05:27:07;;;;;;;10.80;7.57;;;17.50;99.90;;;;;;5030305;28;20422;-48
2022/06/06 05:29:42;;;;;;;11.37;8.37;;;17.50;99.90;;;;;;5026672;28;20025;-51
2022/06/06 05:32:34;;;;;;;9.90;7.80;;;17.50;99.90;;;;;;5029712;28;20025;-48
2022/06/06 05:35:33;;;;;;;15.05;8.30;;;17.50;99.90;;;;;;5029600;28;20033;-48
2022/06/06 05:38:32;;;;;;;10.40;7.97;;;17.50;99.90;;;;;;5029783;28;20033;-49
2022/06/06 05:41:22;;;;;;;11.52;8.73;;;17.50;99.90;;;;;;5029324;28;20202;-50
2022/06/06 05:44:03;;;;;;;12.63;8.63;;;17.60;99.90;;;;;;5029631;28;20509;-49
2022/06/06 05:46:46;;;;;;;;;;;17.60;99.90;;;;;;5029621;28;20049;-48
2022/06/06 05:49:30;;;;;;;16.13;8.30;;;17.60;99.90;;;;;;5029177;28;19968;-50
2022/06/06 05:52:19;;;;;;;11.70;8.77;;;17.60;99.90;;;;;;5028762;28;20021;-48
2022/06/06 05:55:05;;;;;;;10.07;7.82;;;17.70;99.90;;;;;;5026440;28;20116;-46
2022/06/06 05:57:57;;;;;;;14.57;8.30;;;17.70;99.90;;;;;;5028078;28;20029;-47
2022/06/06 06:00:30;;;;;;;12.98;7.85;;;17.80;99.90;;;;;;5028891;28;20025;-49
2022/06/06 06:03:30;;;;;;;10.98;7.55;;;17.80;99.90;;;;;;5027753;28;20494;-47
2022/06/06 06:06:20;;;;;;;11.70;8.07;;;17.80;99.90;;;;;;5027278;28;20475;-48
2022/06/06 06:08:55;;;;;;;10.05;7.65;;;18.00;99.90;;;;;;5022404;28;20087;-49
2022/06/06 06:11:47;;;;;;;9.68;7.93;;;18.00;99.90;;;;;;5028610;28;20025;-49
2022/06/06 06:14:16;;;;;;;11.20;8.23;;;18.00;99.90;;;;;;5029153;28;20565;-47
2022/06/06 06:16:48;;;;;;;13.10;10.05;;;18.10;99.90;;;;;;5029412;28;20044;-48
2022/06/06 06:19:23;;;;;;;12.20;7.90;;;18.20;99.90;;;;;;5026983;28;20064;-47
2022/06/06 06:21:54;;;;;;;10.48;8.27;;;18.30;99.90;;;;;;5014879;28;20092;-50
2022/06/06 06:24:27;;;;;;;15.27;11.13;;;18.40;99.90;;;;;;5009138;28;20177;-49
2022/06/06 06:26:55;;;;;;;17.50;11.05;;;18.50;99.90;;;;;;5009273;28;20022;-51
2022/06/06 06:29:21;;;;;;;21.73;12.95;;;18.60;99.90;;;;;;5009242;28;20025;-46
2022/06/06 06:32:15;;;;;;;20.65;13.48;;;18.60;99.90;;;;;;5008631;28;20442;-47
2022/06/06 06:35:12;;;;;;;18.25;12.95;;;18.60;99.90;;;;;;5013958;28;20021;-46
2022/06/06 06:37:52;;;;;;;19.02;12.80;;;18.60;99.90;;;;;;5021652;28;20260;-46
2022/06/06 06:40:59;;;;;;;17.88;12.32;;;18.60;99.90;;;;;;5027761;28;20428;-48
2022/06/06 06:43:41;;;;;;;16.45;12.02;;;18.60;99.90;;;;;;5028907;28;20025;-48
2022/06/06 06:46:38;;;;;;;20.67;12.63;;;18.60;99.90;;;;;;5028961;28;20491;-50
2022/06/06 06:49:14;;;;;;;16.15;11.20;;;18.70;99.90;;;;;;5027751;28;20545;-48
2022/06/06 06:51:59;;;;;;;15.95;11.55;;;18.80;99.90;;;;;;5021602;28;20036;-50
2022/06/06 06:54:39;;;;;;;14.88;10.25;;;18.80;99.90;;;;;;5027132;28;20075;-50
2022/06/06 06:57:09;;;;;;;11.60;9.10;;;18.80;99.90;;;;;;5027207;28;20095;-48
2022/06/06 07:00:11;;;;;;;12.90;9.27;;;18.90;99.90;;;;;;5028502;28;20024;-49
2022/06/06 07:09:19;;;;;;;12.20;8.05;;;19.70;99.90;;;;;;5025234;28;20060;-49
2022/06/06 07:12:06;;;;;;;12.05;7.35;;;19.70;99.90;;;;;;5027888;28;20022;-50
2022/06/06 07:14:59;;;;;;;10.57;7.85;;;19.80;99.90;;;;;;5027264;28;20116;-51
2022/06/06 07:17:26;;;;;;;8.40;7.10;;;19.70;99.90;;;;;;5029505;28;20017;-51
2022/06/06 07:19:59;;;;;;;8.68;7.43;;;19.70;99.90;;;;;;5026401;28;20026;-49
2022/06/06 07:22:59;;;;;;;10.75;7.90;;;19.60;99.90;;;;;;5028650;28;20486;-48
2022/06/06 07:25:19;;;;;;;9.85;6.97;;;19.70;99.90;;;;;;5027457;28;20029;-48
2022/06/06 07:27:45;;;;;;;10.15;7.38;;;19.80;99.90;;;;;;5028479;28;20124;-48
2022/06/06 07:30:11;;;;;;;9.27;7.13;;;19.90;99.90;;;;;;5026924;28;20101;-51
2022/06/06 07:32:48;;;;;;;9.05;7.45;;;20.00;99.90;;;;;;5028697;28;20049;-48
2022/06/06 07:35:43;;;;;;;9.07;6.82;;;20.10;99.90;;;;;;5025225;28;20037;-47
2022/06/06 07:38:41;;;;;;;11.73;7.88;;;20.20;99.90;;;;;;5024044;28;20116;-51
2022/06/06 07:41:15;;;;;;;11.85;8.45;;;20.20;99.90;;;;;;5032905;28;20099;-48
2022/06/06 07:44:28;;;;;;;9.45;7.05;;;20.10;99.90;;;;;;5053079;28;20083;-49
2022/06/06 07:47:11;;;;;;;10.65;7.90;;;20.00;99.90;;;;;;5043508;28;20709;-48
2022/06/06 07:49:54;;;;;;;9.77;7.38;;;20.10;99.90;;;;;;5027474;28;20032;-47
2022/06/06 07:52:28;;;;;;;13.82;7.50;;;20.30;99.90;;;;;;5032275;28;20021;-48
2022/06/06 07:55:10;;;;;;;9.73;7.63;;;20.20;99.90;;;;;;5032559;28;20083;-48
2022/06/06 07:57:44;;;;;;;11.20;6.70;;;20.30;99.90;;;;;;5031304;28;20042;-51
2022/06/06 08:00:16;;;;;;;11.07;7.40;;;20.80;99.90;;;;;;5027787;28;20021;-48
2022/06/06 08:03:05;;;;;;;9.20;6.78;;;21.00;99.90;;;;;;5031251;28;20024;-50
2022/06/06 08:05:37;;;;;;;8.65;7.15;;;21.20;99.90;;;;;;5016192;28;20124;-48
2022/06/06 08:08:06;;;;;;;11.23;6.85;;;21.20;99.90;;;;;;5009955;28;20080;-48
2022/06/06 08:10:37;;;;;;;8.13;6.97;;;21.10;99.90;;;;;;5010939;28;20092;-49
2022/06/06 08:13:23;;;;;;;15.48;11.68;;;21.00;99.90;;;;;;5013237;28;20109;-48
2022/06/06 08:16:11;;;;;;;11.77;7.38;;;21.20;99.90;;;;;;5012878;28;20033;-49
2022/06/06 08:19:14;;;;;;;9.00;6.53;;;21.10;99.90;;;;;;5012830;28;20423;-51
2022/06/06 08:21:46;;;;;;;8.98;7.70;;;21.00;99.90;;;;;;5011097;28;20034;-48
2022/06/06 08:24:29;;;;;;;10.63;6.88;;;21.20;99.90;;;;;;5012988;28;20376;-47
2022/06/06 08:26:57;;;;;;;10.68;6.30;;;21.90;99.90;;;;;;5012871;28;20105;-50
2022/06/06 08:29:23;;;;;;;9.18;6.18;;;22.30;99.90;;;;;;5018898;28;20017;-50
2022/06/06 08:31:49;;;;;;;11.23;6.72;;;22.80;99.90;;;;;;5031838;28;20017;-49
2022/06/06 08:34:14;;;;;;;7.85;6.13;;;23.00;99.70;;;;;;5030191;28;20053;-51
2022/06/06 08:36:49;;;;;;;9.27;6.30;;;23.20;98.60;;;;;;5012530;28;20117;-50
2022/06/06 08:39:38;;;;;;;9.18;6.15;;;23.20;97.90;;;;;;5012586;28;20058;-48
2022/06/06 08:42:23;;;;;;;8.48;5.97;;;23.10;98.30;;;;;;5012497;28;20375;-48
2022/06/06 08:45:03;;;;;;;10.40;6.13;;;23.00;98.20;;;;;;5012282;28;20040;-47
2022/06/06 08:47:48;;;;;;;8.15;7.18;;;22.50;98.20;;;;;;5010924;28;20114;-50
2022/06/06 08:50:45;;;;;;;8.75;6.93;;;22.30;98.30;;;;;;5026155;28;20379;-51
2022/06/06 08:53:48;;;;;;;8.52;6.22;;;22.40;98.50;;;;;;5031752;28;20022;-47
2022/06/06 08:56:36;;;;;;;7.30;5.78;;;22.90;98.50;;;;;;5031939;28;20031;-51
2022/06/06 08:59:38;;;;;;;6.97;5.78;;;23.30;96.70;;;;;;5028053;28;20026;-48
2022/06/06 09:02:35;;;;;;;6.85;5.25;;;24.20;96.00;;;;;;5029324;28;20067;-47
2022/06/06 09:05:18;;;;;;;7.38;5.95;;;25.10;94.00;;;;;;5027111;28;20026;-47
2022/06/06 09:08:08;;;;;;;5.82;5.22;;;25.10;91.60;;;;;;5027994;28;20049;-48
2022/06/06 09:10:44;;;;;;;;;;;25.00;92.60;;;;;;5028851;28;20072;-50
2022/06/06 09:13:31;;;;;;;7.50;5.82;;;25.80;91.60;;;;;;5029841;28;19916;-48
2022/06/06 09:16:13;;;;;;;4.70;4.30;;;27.00;88.90;;;;;;5031410;28;20034;-49
2022/06/06 09:18:59;;;;;;;6.63;4.97;;;28.40;85.90;;;;;;5031143;28;20028;-50
2022/06/06 09:21:59;;;;;;;5.53;4.35;;;29.50;76.90;;;;;;5017225;28;20025;-50
2022/06/06 09:24:46;;;;;;;5.18;3.85;;;29.70;75.50;;;;;;5011531;28;20026;-50
2022/06/06 09:27:48;;;;;;;5.15;4.38;;;30.30;70.00;;;;;;5011698;28;20495;-50
2022/06/06 09:30:41;;;;;;;4.50;4.10;;;31.20;66.50;;;;;;5010987;28;20014;-49
2022/06/06 09:33:38;;;;;;;5.05;4.20;;;31.60;63.80;;;;;;5011581;28;20014;-50
2022/06/06 09:36:39;;;;;;;3.80;3.50;;;32.10;59.50;;;;;;5010490;28;20732;-51
2022/06/06 09:39:32;;;;;;;4.07;3.67;;;32.20;59.80;;;;;;5010649;28;20045;-50
2022/06/06 09:42:17;;;;;;;4.70;3.67;;;32.30;58.10;;;;;;5011808;28;20025;-50
2022/06/06 09:45:03;;;;;;;5.07;3.60;;;32.50;57.50;;;;;;5011739;28;20033;-51
2022/06/06 09:47:41;;;;;;;4.35;3.95;;;32.70;56.60;;;;;;5023384;28;20037;-50
2022/06/06 09:50:28;;;;;;;4.68;4.22;;;31.80;55.80;;;;;;5014300;28;20029;-49
2022/06/06 09:53:13;;;;;;;7.07;4.70;;;30.90;59.00;;;;;;5011563;28;20414;-50
2022/06/06 09:59:20;;;;;;;5.60;4.70;;;28.80;64.20;;;;;;5016935;28;20107;-49
2022/06/06 10:02:17;;;;;;;5.18;4.15;;;28.30;64.60;;;;;;5028638;28;20483;-51
2022/06/06 10:05:21;;;;;;;4.30;3.90;;;29.30;64.60;;;;;;5030840;28;20486;-49
2022/06/06 10:07:57;;;;;;;5.00;4.40;;;29.20;64.20;;;;;;5031125;28;20018;-50
2022/06/06 10:10:39;;;;;;;4.90;4.47;;;29.40;61.80;;;;;;5030397;28;20556;-49
2022/06/06 10:13:29;;;;;;;4.18;3.85;;;29.30;62.50;;;;;;5025493;28;20017;-50
2022/06/06 10:16:26;;;;;;;6.18;4.30;;;30.90;60.90;;;;;;5028752;28;20086;-50
2022/06/06 10:19:13;;;;;;;5.30;4.18;;;31.60;60.30;;;;;;5022784;28;20121;-48
2022/06/06 10:22:23;;;;;;;4.68;4.22;;;31.60;61.30;;;;;;5026769;28;20032;-49
2022/06/06 10:25:25;;;;;;;4.75;4.18;;;30.80;60.20;;;;;;4994327;28;20538;-48
2022/06/06 10:28:13;;;;;;;4.28;3.88;;;30.90;59.80;;;;;;5011924;28;20025;-48
2022/06/06 10:30:50;;;;;;;7.55;4.03;;;30.60;62.80;;;;;;5014747;28;20064;-48
2022/06/06 10:33:40;;;;;;;5.72;4.00;;;30.80;60.50;;;;;;5008387;28;20057;-47
2022/06/06 10:36:33;;;;;;;7.45;4.68;;;30.40;60.60;;;;;;5007004;28;20037;-49
2022/06/06 10:39:13;;;;;;;7.38;4.38;;;28.70;58.90;;;;;;5008438;28;20116;-49
2022/06/06 10:41:57;;;;;;;4.35;3.95;;;28.30;64.20;;;;;;5007842;28;20025;-48
2022/06/06 10:45:11;;;;;;;5.85;4.00;;;28.90;63.10;;;;;;5008439;28;20021;-48
2022/06/06 10:48:02;;;;;;;5.40;3.80;;;29.00;64.00;;;;;;5021457;28;20013;-47
2022/06/06 10:50:35;;;;;;;4.63;3.92;;;28.90;62.40;;;;;;5007048;28;20100;-50
2022/06/06 10:53:44;;;;;;;3.90;3.60;;;28.60;61.60;;;;;;5008396;28;20088;-48
2022/06/06 10:56:25;;;;;;;7.90;3.85;;;29.30;63.40;;;;;;5008721;28;20014;-48
2022/06/06 10:59:12;;;;;;;4.18;3.78;;;29.70;60.90;;;;;;5008373;28;20552;-49
2022/06/06 11:01:37;;;;;;;5.85;3.83;;;28.70;61.10;;;;;;5007368;28;20029;-50
2022/06/06 11:04:03;;;;;;;4.57;4.05;;;28.10;63.40;;;;;;5008175;28;20387;-48
2022/06/06 11:07:02;;;;;;;4.20;3.80;;;28.10;65.20;;;;;;5007608;28;20403;-48
2022/06/06 11:10:08;;;;;;;5.32;4.05;;;27.80;65.80;;;;;;5011873;28;20030;-49
2022/06/06 11:13:05;;;;;;;6.20;3.95;;;27.40;66.50;;;;;;5012615;28;20049;-50
2022/06/06 11:15:52;;;;;;;4.97;4.47;;;26.70;68.00;;;;;;5029433;28;20056;-48
2022/06/06 11:18:38;;;;;;;6.93;5.15;;;26.40;68.70;;;;;;5030375;28;20033;-49
2022/06/06 11:21:34;;;;;;;5.38;4.63;;;26.40;72.50;;;;;;5024872;28;20026;-48
2022/06/06 11:24:21;;;;;;;4.35;3.95;;;28.00;70.60;;;;;;5026754;28;20029;-48
2022/06/06 11:27:14;;;;;;;4.13;3.72;;;29.40;63.30;;;;;;5031852;28;20115;-50
2022/06/06 11:30:09;;;;;;;5.93;3.40;;;30.20;66.00;;;;;;5028907;28;20017;-49
2022/06/06 11:32:52;;;;;;;5.97;3.85;;;29.90;63.60;;;;;;5031491;28;20172;-50
2022/06/06 11:36:01;;;;;;;4.13;3.60;;;29.10;62.80;;;;;;5030222;28;20034;-48
2022/06/06 11:38:30;;;;;;;3.90;3.60;;;29.30;61.30;;;;;;5031451;28;20516;-50
2022/06/06 11:41:24;;;;;;;3.95;3.25;;;29.30;60.90;;;;;;5028483;28;20544;-50
2022/06/06 11:43:58;;;;;;;3.40;3.10;;;28.70;61.70;;;;;;5029167;28;20029;-51
2022/06/06 11:46:43;;;;;;;3.35;3.00;;;27.50;63.90;;;;;;5031109;28;20029;-51
2022/06/06 11:49:41;;;;;;;4.35;3.58;;;26.90;63.60;;;;;;5031104;28;20033;-48
2022/06/06 11:52:25;;;;;;;5.07;3.70;;;26.40;66.10;;;;;;5026741;28;20392;-49
2022/06/06 11:54:59;;;;;;;3.92;3.30;;;26.30;68.40;;;;;;5011436;28;20049;-47
2022/06/06 11:57:52;;;;;;;4.25;3.45;;;26.00;67.80;;;;;;5011349;28;20086;-51
2022/06/06 12:00:53;;;;;;;3.65;3.08;;;25.40;66.60;;;;;;5011947;28;20060;-50
2022/06/06 12:03:38;;;;;;;3.92;3.20;;;24.70;69.60;;;;;;5012663;28;20104;-48
2022/06/06 12:06:33;;;;;;;2.88;2.45;;;24.20;70.90;;;;;;5009280;28;20029;-50
2022/06/06 12:09:42;;;;;;;2.70;2.50;;;23.90;70.30;;;;;;5011293;28;20018;-50
2022/06/06 12:12:37;;;;;;;3.10;2.70;;;24.20;69.80;;;;;;5011506;28;20121;-51
2022/06/06 12:15:56;;;;;;;3.05;2.75;;;24.20;70.10;;;;;;5011527;28;20118;-49
2022/06/06 12:18:51;;;;;;;3.97;2.90;;;23.90;69.40;;;;;;4969201;28;20041;-48
2022/06/06 12:22:24;;;;;;;3.47;2.80;;;23.90;71.40;;;;;;5026036;28;20030;-47
2022/06/06 12:25:26;;;;;;;3.13;2.83;;;23.90;70.80;;;;;;4950433;28;20086;-46
2022/06/06 12:28:32;;;;;;;3.47;2.78;;;23.60;72.70;;;;;;5011388;28;20026;-47
2022/06/06 12:31:18;;;;;;;3.40;2.92;;;23.40;72.60;;;;;;5010911;28;20471;-47
2022/06/06 12:34:06;;;;;;;3.30;3.00;;;23.30;75.90;;;;;;5011557;28;20468;-46
2022/06/06 12:36:43;;;;;;;5.10;4.63;;;23.20;76.10;;;;;;5011043;28;20117;-48
2022/06/06 12:39:22;;;;;;;5.60;4.30;;;23.10;78.50;;;;;;5011493;28;20018;-51
2022/06/06 12:41:53;;;;;;;5.25;3.45;;;22.70;77.70;;;;;;5010628;28;20360;-46
2022/06/06 12:44:43;;;;;;;4.07;3.45;;;22.60;79.00;;;;;;5011301;28;20681;-49
2022/06/06 12:47:23;;;;;;;4.07;3.20;;;22.40;78.60;;;;;;5010987;28;20086;-47
2022/06/06 12:50:25;;;;;;;3.15;2.80;;;22.40;76.90;;;;;;5013956;28;20541;-48
2022/06/06 12:53:23;;;;;;;4.05;2.95;;;22.60;79.20;;;;;;5024170;28;20124;-47
2022/06/06 12:56:25;;;;;;;3.80;2.47;;;23.10;80.50;;;;;;5030870;28;20021;-47
2022/06/06 12:59:21;;;;;;;3.17;2.78;;;23.90;75.60;;;;;;5030756;28;20191;-50
2022/06/06 13:02:06;;;;;;;4.10;2.78;;;24.60;73.10;;;;;;5029962;28;20053;-46
2022/06/06 13:04:48;;;;;;;3.75;2.58;;;24.90;72.40;;;;;;5030513;28;20449;-47
2022/06/06 13:07:24;;;;;;;3.42;2.80;;;25.00;71.50;;;;;;5030576;28;20029;-49
2022/06/06 13:10:19;;;;;;;3.78;2.60;;;24.80;72.50;;;;;;5029762;28;20112;-49
2022/06/06 13:13:18;;;;;;;3.25;2.90;;;25.00;71.80;;;;;;5029190;28;20029;-47
2022/06/06 13:15:53;;;;;;;3.28;2.97;;;25.20;68.70;;;;;;5030168;28;20040;-49
2022/06/06 13:18:46;;;;;;;4.63;3.40;;;24.40;69.00;;;;;;5030320;28;20558;-47
2022/06/06 13:21:49;;;;;;;3.78;2.60;;;23.90;71.40;;;;;;5029159;28;20030;-48
2022/06/06 13:24:30;;;;;;;4.60;3.25;;;23.90;73.10;;;;;;5012944;28;20056;-47
2022/06/06 13:27:15;;;;;;;3.83;2.97;;;23.20;75.30;;;;;;5021936;28;20125;-48
2022/06/06 13:29:41;;;;;;;5.15;3.53;;;23.60;76.40;;;;;;5022411;28;20026;-47
2022/06/06 13:32:53;;;;;;;3.22;2.92;;;23.60;73.00;;;;;;5029453;28;20030;-48
2022/06/06 13:35:45;;;;;;;3.72;2.90;;;23.60;73.10;;;;;;5029378;28;20065;-47
2022/06/06 13:38:29;;;;;;;4.13;3.42;;;23.80;71.70;;;;;;5021468;28;20030;-48
2022/06/06 13:41:32;;;;;;;3.80;3.22;;;23.90;71.10;;;;;;5008315;28;20029;-48
2022/06/06 13:43:59;;;;;;;3.75;3.00;;;24.10;72.50;;;;;;5010250;28;20108;-48
2022/06/06 13:46:56;;;;;;;3.50;3.20;;;24.30;72.50;;;;;;5010186;28;20022;-50
2022/06/06 13:49:36;;;;;;;5.97;3.65;;;24.20;72.60;;;;;;5010323;28;20528;-49
2022/06/06 13:52:41;;;;;;;3.15;2.85;;;24.50;73.30;;;;;;5009435;28;20728;-51
2022/06/06 13:55:31;;;;;;;6.07;3.70;;;24.20;69.40;;;;;;5008645;28;20041;-48
2022/06/06 13:58:20;;;;;;;4.88;3.80;;;24.00;70.90;;;;;;5008644;28;20022;-49
2022/06/06 14:01:00;;;;;;;4.83;3.13;;;24.80;74.60;;;;;;5009346;28;20030;-48
2022/06/06 14:04:03;;;;;;;3.95;2.97;;;24.80;69.80;;;;;;5027900;28;20457;-51
2022/06/06 14:06:34;;;;;;;3.15;2.85;;;25.00;67.60;;;;;;5009812;28;20576;-49
2022/06/06 14:09:00;;;;;;;5.80;3.00;;;25.00;69.30;;;;;;5009519;28;20025;-49
2022/06/06 14:11:51;;;;;;;2.85;2.33;;;24.80;68.20;;;;;;5009259;28;20448;-49
2022/06/06 14:14:19;;;;;;;2.47;2.28;;;25.00;71.60;;;;;;5009432;28;20037;-50
2022/06/06 14:16:52;;;;;;;4.38;2.97;;;25.60;67.70;;;;;;5009319;28;20026;-49